Time;durP1;ratioP1;P1;durP2;ratioP2;P2;SDS_P1;SDS_P2;PMS_P1;PMS_P2;Temp;Humidity;BMP_temperature;BMP_pressure;BME280_temperature;BME280_humidity;BME280_pressure;Samples;Min_cycle;Max_cycle;Signal;HPM_P1;HPM_P2
2023/09/06 00:03:27;;;;;;;1.67;1.10;;;19.20;99.90;;;;;;7348661;32;20614;-55
2023/09/06 00:07:29;;;;;;;1.73;1.20;;;19.10;99.90;;;;;;7349472;32;20427;-56
2023/09/06 00:11:32;;;;;;;3.00;1.15;;;19.00;99.90;;;;;;7347843;32;20104;-56
2023/09/06 00:15:34;;;;;;;1.60;1.00;;;19.00;99.90;;;;;;7354275;32;20178;-56
2023/09/06 00:19:36;;;;;;;3.12;1.40;;;18.90;99.90;;;;;;7345619;32;20114;-55
2023/09/06 00:23:38;;;;;;;2.33;1.48;;;18.80;99.90;;;;;;7349957;32;20619;-55
2023/09/06 00:27:41;;;;;;;2.45;1.12;;;18.50;99.90;;;;;;7346002;32;20513;-56
2023/09/06 00:31:43;;;;;;;6.35;1.40;;;18.40;99.90;;;;;;7345045;32;20288;-55
2023/09/06 00:35:45;;;;;;;1.90;1.25;;;18.20;99.90;;;;;;7344848;32;20564;-55
2023/09/06 00:39:46;;;;;;;4.60;1.58;;;17.90;99.90;;;;;;7348915;32;20313;-55
2023/09/06 00:43:48;;;;;;;5.32;1.20;;;17.80;99.90;;;;;;7351790;32;20217;-56
2023/09/06 00:47:51;;;;;;;5.28;1.50;;;17.60;99.90;;;;;;7338197;32;20142;-56
2023/09/06 00:51:53;;;;;;;2.50;1.42;;;17.30;99.90;;;;;;7349014;32;20113;-55
2023/09/06 00:55:59;;;;;;;2.65;1.45;;;17.20;99.90;;;;;;7343601;32;20103;-56
2023/09/06 01:00:04;;;;;;;5.05;1.40;;;17.00;99.90;;;;;;7348959;32;20096;-56
2023/09/06 01:04:05;;;;;;;6.35;1.67;;;16.90;99.90;;;;;;7347040;32;20186;-56
2023/09/06 01:08:13;;;;;;;4.12;1.40;;;16.70;99.90;;;;;;7341976;32;20120;-56
2023/09/06 01:12:14;;;;;;;5.32;1.52;;;16.60;99.90;;;;;;7343505;32;20653;-57
2023/09/06 01:16:22;;;;;;;3.75;1.70;;;16.40;99.90;;;;;;7341046;32;20198;-55
2023/09/06 01:20:33;;;;;;;4.85;1.50;;;16.30;99.90;;;;;;7345470;32;20099;-55
2023/09/06 01:24:36;;;;;;;2.60;1.60;;;16.10;99.90;;;;;;7349002;32;20448;-55
2023/09/06 01:28:38;;;;;;;3.80;1.70;;;16.10;99.90;;;;;;7345745;32;20284;-55
2023/09/06 01:32:40;;;;;;;2.72;1.50;;;16.00;99.90;;;;;;7347316;32;20511;-56
2023/09/06 01:36:43;;;;;;;4.95;1.40;;;15.90;99.90;;;;;;7350533;32;20099;-56
2023/09/06 01:40:45;;;;;;;5.90;1.60;;;15.80;99.90;;;;;;7347974;32;20114;-55
2023/09/06 01:44:47;;;;;;;5.20;1.27;;;15.70;99.90;;;;;;7345600;32;20106;-56
2023/09/06 01:48:49;;;;;;;2.17;1.27;;;15.70;99.90;;;;;;7342662;32;20138;-55
2023/09/06 01:52:52;;;;;;;4.18;1.58;;;15.70;99.90;;;;;;7343968;32;20359;-56
2023/09/06 01:56:53;;;;;;;5.60;1.87;;;15.60;99.90;;;;;;7340990;32;20122;-56
2023/09/06 02:00:57;;;;;;;5.40;1.80;;;15.50;99.90;;;;;;7338285;32;20126;-55
2023/09/06 02:04:59;;;;;;;4.18;1.42;;;15.40;99.90;;;;;;7340671;32;20323;-55
2023/09/06 02:09:00;;;;;;;1.70;1.35;;;15.20;99.90;;;;;;7347747;32;20096;-56
2023/09/06 02:13:02;;;;;;;4.10;1.42;;;15.20;99.90;;;;;;7345293;32;20643;-57
2023/09/06 02:17:04;;;;;;;4.90;1.55;;;15.10;99.90;;;;;;7339971;32;20100;-55
2023/09/06 02:21:06;;;;;;;4.15;1.85;;;15.00;99.90;;;;;;7340806;32;20099;-56
2023/09/06 02:25:08;;;;;;;2.25;1.60;;;14.90;99.90;;;;;;7341567;32;20099;-55
2023/09/06 02:29:11;;;;;;;3.58;1.52;;;14.80;99.90;;;;;;7342266;32;20126;-56
2023/09/06 02:33:14;;;;;;;3.87;1.95;;;14.70;99.90;;;;;;7344352;32;20095;-54
2023/09/06 02:37:16;;;;;;;3.90;1.80;;;14.70;99.90;;;;;;7342590;32;20250;-55
2023/09/06 02:41:20;;;;;;;7.35;1.55;;;14.70;99.90;;;;;;7343394;32;20522;-56
2023/09/06 02:45:22;;;;;;;5.68;1.55;;;14.60;99.90;;;;;;7340053;32;20441;-56
2023/09/06 02:49:27;;;;;;;5.15;1.65;;;14.70;99.90;;;;;;7339946;32;20118;-56
2023/09/06 02:53:31;;;;;;;7.93;1.60;;;14.60;99.90;;;;;;7344912;32;20311;-55
2023/09/06 02:57:34;;;;;;;2.70;1.62;;;14.50;99.90;;;;;;7340816;32;20822;-55
2023/09/06 03:01:38;;;;;;;4.85;1.60;;;14.40;99.90;;;;;;7349901;32;20204;-55
2023/09/06 03:05:43;;;;;;;1.95;1.60;;;14.30;99.90;;;;;;7342357;32;20422;-56
2023/09/06 03:09:45;;;;;;;4.68;1.60;;;14.40;99.90;;;;;;7346510;32;20178;-55
2023/09/06 03:13:46;;;;;;;3.60;1.52;;;14.30;99.90;;;;;;7348701;32;20543;-55
2023/09/06 03:17:53;;;;;;;2.62;1.60;;;14.30;99.90;;;;;;7347044;32;20762;-55
2023/09/06 03:21:56;;;;;;;3.00;1.93;;;14.30;99.90;;;;;;7345972;32;20127;-55
2023/09/06 03:25:58;;;;;;;2.40;1.55;;;14.20;99.90;;;;;;7347416;32;20908;-57
2023/09/06 03:30:00;;;;;;;6.35;2.05;;;14.30;99.90;;;;;;7343765;32;20134;-59
2023/09/06 03:34:02;;;;;;;3.10;1.85;;;14.20;99.90;;;;;;7347284;32;20107;-55
2023/09/06 03:38:10;;;;;;;3.03;1.95;;;14.10;99.90;;;;;;7339116;32;20145;-55
2023/09/06 03:42:15;;;;;;;3.35;1.75;;;14.10;99.90;;;;;;7342717;32;20216;-56
2023/09/06 03:46:19;;;;;;;4.47;1.70;;;14.00;99.90;;;;;;7339308;32;20096;-57
2023/09/06 03:50:21;;;;;;;5.18;1.65;;;13.90;99.90;;;;;;7346870;32;20119;-56
2023/09/06 03:54:24;;;;;;;7.25;1.90;;;13.90;99.90;;;;;;7343716;32;20160;-56
2023/09/06 03:58:27;;;;;;;2.42;1.60;;;13.80;99.90;;;;;;7353801;32;20099;-55
2023/09/06 04:02:30;;;;;;;3.33;1.80;;;13.80;99.90;;;;;;7345826;32;20230;-56
2023/09/06 04:06:34;;;;;;;4.62;1.70;;;13.80;99.90;;;;;;7352497;32;20126;-55
2023/09/06 04:10:40;;;;;;;4.28;1.70;;;13.80;99.90;;;;;;7344534;32;20108;-56
2023/09/06 04:14:42;;;;;;;3.58;2.00;;;13.70;99.90;;;;;;7341270;32;20493;-57
2023/09/06 04:18:43;;;;;;;4.22;1.60;;;13.60;99.90;;;;;;7344568;32;20118;-56
2023/09/06 04:22:46;;;;;;;7.05;2.03;;;13.60;99.90;;;;;;7351536;32;20103;-57
2023/09/06 04:26:48;;;;;;;2.50;1.87;;;13.60;99.90;;;;;;7345642;32;20127;-55
2023/09/06 04:30:51;;;;;;;6.37;1.90;;;13.60;99.90;;;;;;7346749;32;20204;-56
2023/09/06 04:34:53;;;;;;;5.70;2.30;;;13.60;99.90;;;;;;7344331;32;20104;-56
2023/09/06 04:38:56;;;;;;;2.05;1.70;;;13.60;99.90;;;;;;7338043;32;20121;-56
2023/09/06 04:42:58;;;;;;;4.28;1.87;;;13.60;99.90;;;;;;7346702;32;20157;-55
2023/09/06 04:46:59;;;;;;;6.72;2.05;;;13.60;99.90;;;;;;7345150;32;20128;-56
2023/09/06 04:51:01;;;;;;;5.03;2.05;;;13.60;99.90;;;;;;7352047;32;20131;-56
2023/09/06 04:55:06;;;;;;;2.72;1.85;;;13.60;99.90;;;;;;7345489;32;20578;-55
2023/09/06 04:59:12;;;;;;;3.85;1.98;;;13.60;99.90;;;;;;7348931;32;20428;-56
2023/09/06 05:03:17;;;;;;;4.43;2.08;;;13.60;99.90;;;;;;7340997;32;20111;-55
2023/09/06 05:07:19;;;;;;;4.35;2.30;;;13.70;99.90;;;;;;7332935;32;20107;-56
2023/09/06 05:11:21;;;;;;;6.75;2.25;;;13.60;99.90;;;;;;7350037;32;20130;-55
2023/09/06 05:15:22;;;;;;;4.75;2.45;;;13.70;99.90;;;;;;7344902;32;20951;-56
2023/09/06 05:19:27;;;;;;;10.23;2.60;;;13.70;99.90;;;;;;7342187;32;20257;-57
2023/09/06 05:23:29;;;;;;;3.55;2.37;;;13.70;99.90;;;;;;7347364;32;20103;-55
2023/09/06 05:27:31;;;;;;;5.30;2.00;;;13.70;99.90;;;;;;7343031;32;20178;-56
2023/09/06 05:31:32;;;;;;;5.55;2.60;;;13.80;99.90;;;;;;7346512;32;20171;-56
2023/09/06 05:35:34;;;;;;;3.85;2.35;;;13.80;99.90;;;;;;7348762;32;20165;-56
2023/09/06 05:39:37;;;;;;;3.67;2.37;;;13.90;99.90;;;;;;7334370;32;20605;-56
2023/09/06 05:43:39;;;;;;;5.90;2.55;;;14.00;99.90;;;;;;7355713;32;20578;-55
2023/09/06 05:47:41;;;;;;;5.75;2.55;;;14.00;99.90;;;;;;7337772;32;20619;-57
2023/09/06 05:51:43;;;;;;;5.00;2.55;;;14.10;99.90;;;;;;7338767;32;20246;-56
2023/09/06 05:55:45;;;;;;;18.65;12.07;;;14.20;99.90;;;;;;7332754;32;20201;-55
2023/09/06 05:59:46;;;;;;;22.05;15.10;;;14.20;99.90;;;;;;7332806;32;20242;-55
2023/09/06 06:03:48;;;;;;;25.70;19.02;;;14.30;99.90;;;;;;7353546;32;20186;-56
2023/09/06 06:07:51;;;;;;;8.13;5.43;;;14.40;99.90;;;;;;7339493;32;20133;-53
2023/09/06 06:11:53;;;;;;;6.28;3.30;;;14.60;99.90;;;;;;7333523;32;20171;-55
2023/09/06 06:15:55;;;;;;;11.40;3.22;;;14.70;99.90;;;;;;7327942;32;20183;-54
2023/09/06 06:19:56;;;;;;;9.88;3.37;;;14.80;99.90;;;;;;7335264;32;20201;-54
2023/09/06 06:23:58;;;;;;;5.22;3.20;;;14.90;99.90;;;;;;7329599;32;20210;-54
2023/09/06 06:28:00;;;;;;;4.25;3.35;;;15.10;99.90;;;;;;7335757;32;20646;-58
2023/09/06 06:32:02;;;;;;;7.18;2.87;;;15.40;99.90;;;;;;7326897;32;20746;-57
2023/09/06 06:36:05;;;;;;;4.78;3.22;;;15.70;99.90;;;;;;7334849;32;20115;-57
2023/09/06 06:40:07;;;;;;;6.57;2.83;;;16.00;99.90;;;;;;7353084;32;20189;-57
2023/09/06 06:44:09;;;;;;;6.80;3.25;;;16.30;99.90;;;;;;7347312;32;20466;-56
2023/09/06 06:48:11;;;;;;;6.72;2.87;;;16.70;99.90;;;;;;7349760;32;20293;-58
2023/09/06 06:52:12;;;;;;;5.30;3.03;;;16.90;99.90;;;;;;7349200;32;20224;-57
2023/09/06 06:56:14;;;;;;;7.93;3.30;;;17.20;99.90;;;;;;7356723;32;20119;-58
2023/09/06 07:00:17;;;;;;;5.43;3.53;;;17.40;99.90;;;;;;7355568;32;20107;-58
2023/09/06 07:04:19;;;;;;;6.62;3.53;;;17.50;99.90;;;;;;7346139;32;20191;-56
2023/09/06 07:08:23;;;;;;;5.32;3.25;;;17.80;99.90;;;;;;7349178;32;20258;-57
2023/09/06 07:12:25;;;;;;;4.68;2.58;;;18.00;99.90;;;;;;7346690;32;20144;-57
2023/09/06 07:16:27;;;;;;;7.20;2.78;;;18.10;99.90;;;;;;7353524;32;20103;-57
2023/09/06 07:20:32;;;;;;;5.85;2.70;;;18.20;99.90;;;;;;7352815;32;20159;-58
2023/09/06 07:24:34;;;;;;;5.60;2.92;;;18.40;99.90;;;;;;7338839;32;20107;-57
2023/09/06 07:28:41;;;;;;;6.43;2.80;;;18.70;99.90;;;;;;7350984;32;20092;-57
2023/09/06 07:32:43;;;;;;;5.25;2.90;;;18.90;99.90;;;;;;7348225;32;20216;-57
2023/09/06 07:36:44;;;;;;;5.68;3.05;;;19.00;99.90;;;;;;7346295;32;20507;-58
2023/09/06 07:40:46;;;;;;;4.80;2.42;;;19.30;99.90;;;;;;7350222;32;20763;-56
2023/09/06 07:44:48;;;;;;;7.53;2.65;;;19.50;99.90;;;;;;7338858;32;20699;-57
2023/09/06 07:48:49;;;;;;;6.03;2.58;;;19.70;99.90;;;;;;7349622;32;20091;-57
2023/09/06 07:52:51;;;;;;;9.32;2.72;;;19.90;99.90;;;;;;7351057;32;20636;-57
2023/09/06 07:56:53;;;;;;;5.55;2.80;;;20.00;99.90;;;;;;7347353;32;20765;-57
2023/09/06 08:00:55;;;;;;;4.85;3.10;;;20.20;99.90;;;;;;7348407;32;20111;-57
2023/09/06 08:05:16;;;;;;;5.55;3.30;;;20.40;99.90;;;;;;7352714;32;20127;-58
2023/09/06 08:09:19;;;;;;;7.28;3.20;;;20.40;99.90;;;;;;7342922;32;20589;-57
2023/09/06 08:13:21;;;;;;;6.30;2.60;;;20.80;99.90;;;;;;7354094;32;20233;-57
2023/09/06 08:17:23;;;;;;;6.05;2.55;;;21.00;99.90;;;;;;7353020;32;20178;-57
2023/09/06 08:21:25;;;;;;;6.72;3.65;;;21.30;99.90;;;;;;7353778;32;20729;-58
2023/09/06 08:25:27;;;;;;;4.57;2.72;;;21.60;99.90;;;;;;7355769;32;20160;-58
2023/09/06 08:29:28;;;;;;;5.70;3.15;;;22.00;99.90;;;;;;7347537;32;20146;-59
2023/09/06 08:33:30;;;;;;;5.12;3.08;;;22.20;99.90;;;;;;7349884;32;20490;-58
2023/09/06 08:37:33;;;;;;;4.18;3.03;;;22.50;99.90;;;;;;7336113;32;20670;-57
2023/09/06 08:41:35;;;;;;;3.70;2.50;;;22.80;99.90;;;;;;7343289;32;20637;-58
2023/09/06 08:45:42;;;;;;;6.82;3.35;;;23.20;99.90;;;;;;7350653;32;20103;-57
2023/09/06 08:49:46;;;;;;;4.85;2.67;;;23.50;99.90;;;;;;7349148;32;20198;-58
2023/09/06 08:53:48;;;;;;;7.07;2.90;;;23.80;99.90;;;;;;7349074;32;20478;-58
2023/09/06 08:57:51;;;;;;;5.03;3.28;;;23.90;99.90;;;;;;7345091;32;20114;-57
2023/09/06 09:01:53;;;;;;;5.03;3.10;;;24.10;99.90;;;;;;7343831;32;20110;-59
2023/09/06 09:06:08;;;;;;;5.75;2.67;;;24.10;99.90;;;;;;7352525;32;20526;-58
2023/09/06 09:10:13;;;;;;;6.82;2.67;;;24.00;99.90;;;;;;7353964;32;20091;-58
2023/09/06 09:14:22;;;;;;;6.45;2.70;;;24.30;99.90;;;;;;7347975;32;20104;-59
2023/09/06 09:18:28;;;;;;;4.10;2.90;;;24.80;99.90;;;;;;7338463;32;20107;-58
2023/09/06 09:22:35;;;;;;;4.77;3.03;;;26.00;99.90;;;;;;7353728;32;20320;-59
2023/09/06 09:26:41;;;;;;;6.05;2.95;;;26.80;99.90;;;;;;7349521;32;20655;-59
2023/09/06 09:30:43;;;;;;;4.00;2.72;;;27.00;99.90;;;;;;7348706;32;20148;-58
2023/09/06 09:34:44;;;;;;;4.37;2.60;;;27.20;99.90;;;;;;7351346;32;20114;-60
2023/09/06 09:38:50;;;;;;;7.87;2.40;;;27.80;99.90;;;;;;7343076;32;20119;-58
2023/09/06 09:42:53;;;;;;;;;;;29.10;99.90;;;;;;7350683;32;20133;-59
2023/09/06 09:46:57;;;;;;;3.72;2.37;;;30.90;99.90;;;;;;7346540;32;20075;-58
2023/09/06 09:51:04;;;;;;;3.22;2.20;;;32.20;94.10;;;;;;7344568;32;20201;-59
2023/09/06 09:55:08;;;;;;;2.90;2.17;;;33.10;92.60;;;;;;7343774;32;20615;-59
2023/09/06 09:59:10;;;;;;;3.83;2.25;;;33.80;85.40;;;;;;7344428;32;20127;-60
2023/09/06 10:03:13;;;;;;;2.58;2.22;;;34.10;83.60;;;;;;7346478;32;21228;-59
2023/09/06 10:07:19;;;;;;;2.47;2.15;;;35.50;80.00;;;;;;7344065;32;20142;-60
2023/09/06 10:11:21;;;;;;;2.72;2.30;;;36.00;75.50;;;;;;7352034;32;20655;-59
2023/09/06 10:15:28;;;;;;;4.25;2.47;;;36.20;77.90;;;;;;7345772;32;20226;-59
2023/09/06 10:19:30;;;;;;;3.58;2.35;;;36.30;71.90;;;;;;7339604;32;20103;-59
2023/09/06 10:23:50;;;;;;;5.75;2.60;;;35.60;68.00;;;;;;7347933;32;20592;-58
2023/09/06 10:27:54;;;;;;;3.78;2.35;;;34.90;62.50;;;;;;7354934;32;20265;-59
2023/09/06 10:32:04;;;;;;;3.25;2.12;;;34.90;69.50;;;;;;7352310;32;20169;-58
2023/09/06 10:36:11;;;;;;;3.58;2.17;;;34.80;60.80;;;;;;7349145;32;20185;-58
2023/09/06 10:40:13;;;;;;;4.68;2.83;;;34.80;60.40;;;;;;7347701;32;20104;-60
2023/09/06 10:44:15;;;;;;;3.53;2.40;;;33.80;60.90;;;;;;7344616;32;20103;-59
2023/09/06 10:48:17;;;;;;;4.93;2.10;;;34.20;64.80;;;;;;7344288;32;20166;-59
2023/09/06 10:52:37;;;;;;;4.90;2.20;;;34.00;64.10;;;;;;7341516;32;20164;-59
2023/09/06 10:56:49;;;;;;;4.45;2.40;;;33.80;63.10;;;;;;7354207;32;20130;-58
2023/09/06 11:01:20;;;;;;;3.20;2.35;;;34.00;68.80;;;;;;7341641;32;20122;-58
2023/09/06 11:05:35;;;;;;;7.12;2.17;;;34.20;63.70;;;;;;7342404;32;20976;-59
2023/09/06 11:09:45;;;;;;;4.60;1.92;;;34.20;65.20;;;;;;7348106;32;20399;-59
2023/09/06 11:13:46;;;;;;;2.10;1.80;;;34.50;64.70;;;;;;7344696;32;20095;-58
2023/09/06 11:17:48;;;;;;;3.75;2.22;;;34.10;66.20;;;;;;7347400;32;20119;-59
2023/09/06 11:22:04;;;;;;;3.22;2.22;;;33.60;63.50;;;;;;7353780;32;20442;-58
2023/09/06 11:26:05;;;;;;;3.77;2.43;;;33.20;67.00;;;;;;7355350;32;20156;-59
2023/09/06 11:30:15;;;;;;;3.45;2.35;;;32.90;68.40;;;;;;7350797;32;20244;-57
2023/09/06 11:34:19;;;;;;;3.22;2.28;;;32.10;71.40;;;;;;7353944;32;20107;-58
2023/09/06 11:38:28;;;;;;;3.22;2.60;;;31.80;71.90;;;;;;7353098;32;20803;-59
2023/09/06 11:42:33;;;;;;;3.62;2.40;;;31.40;70.00;;;;;;7356705;32;20103;-58
2023/09/06 11:46:38;;;;;;;4.62;2.45;;;30.90;71.90;;;;;;7345339;32;20149;-57
2023/09/06 11:50:42;;;;;;;3.05;2.15;;;30.90;70.20;;;;;;7351005;32;20126;-57
2023/09/06 11:54:49;;;;;;;4.03;2.40;;;31.20;70.80;;;;;;7352242;32;20126;-58
2023/09/06 11:58:53;;;;;;;4.68;2.10;;;31.30;70.90;;;;;;7344549;32;20131;-58
2023/09/06 12:03:07;;;;;;;5.00;2.42;;;31.60;69.70;;;;;;7352237;32;20528;-57
2023/09/06 12:07:09;;;;;;;4.05;2.35;;;31.50;72.20;;;;;;7348831;32;20152;-57
2023/09/06 12:11:14;;;;;;;4.37;1.95;;;31.10;74.50;;;;;;7344147;32;20134;-58
2023/09/06 12:15:19;;;;;;;3.10;2.00;;;31.00;70.60;;;;;;7345549;32;20092;-59
2023/09/06 12:19:21;;;;;;;7.03;2.42;;;30.80;73.00;;;;;;7357765;32;20218;-58
2023/09/06 12:23:26;;;;;;;3.10;2.30;;;30.50;71.00;;;;;;7339802;32;20134;-58
2023/09/06 12:28:14;;;;;;;4.32;2.30;;;30.30;77.00;;;;;;7351029;32;20122;-58
2023/09/06 12:32:17;;;;;;;2.92;2.05;;;30.20;71.80;;;;;;7347468;32;20145;-58
2023/09/06 12:36:19;;;;;;;2.62;1.95;;;30.10;72.00;;;;;;7343680;32;20552;-58
2023/09/06 12:40:27;;;;;;;7.53;2.42;;;30.00;70.80;;;;;;7339855;32;20095;-54
2023/09/06 12:44:29;;;;;;;3.50;2.12;;;30.10;75.50;;;;;;7349565;32;20186;-58
2023/09/06 12:48:31;;;;;;;2.78;1.90;;;30.20;72.30;;;;;;7353537;32;20246;-59
2023/09/06 12:52:34;;;;;;;3.47;2.22;;;30.10;78.20;;;;;;7342403;32;20162;-59
2023/09/06 12:56:36;;;;;;;5.32;2.40;;;30.10;76.10;;;;;;7345985;32;20194;-58
2023/09/06 13:00:37;;;;;;;3.83;2.08;;;30.30;77.30;;;;;;7335845;32;20243;-56
2023/09/06 13:04:39;;;;;;;2.12;1.85;;;30.10;70.80;;;;;;7349953;32;20115;-57
2023/09/06 13:08:43;;;;;;;5.18;1.85;;;30.50;75.30;;;;;;7343406;32;20099;-59
2023/09/06 13:12:45;;;;;;;3.95;2.20;;;30.30;68.70;;;;;;7351500;32;20137;-57
2023/09/06 13:16:47;;;;;;;4.55;2.30;;;30.30;70.20;;;;;;7339145;32;20150;-57
2023/09/06 13:20:53;;;;;;;2.97;2.17;;;30.50;74.40;;;;;;7348211;32;20235;-58
2023/09/06 13:24:55;;;;;;;;;;;30.50;70.20;;;;;;7344603;32;20114;-58
2023/09/06 13:28:57;;;;;;;3.37;2.30;;;30.30;74.20;;;;;;7348130;32;20075;-57
2023/09/06 13:32:58;;;;;;;4.60;2.28;;;30.30;71.20;;;;;;7342286;32;20892;-58
2023/09/06 13:37:00;;;;;;;2.72;1.92;;;30.40;76.80;;;;;;7345252;32;20249;-58
2023/09/06 13:41:02;;;;;;;3.40;2.17;;;30.30;74.30;;;;;;7342741;32;20505;-59
2023/09/06 13:45:04;;;;;;;3.92;2.15;;;30.40;79.40;;;;;;7341498;32;20126;-58
2023/09/06 13:49:07;;;;;;;6.07;1.90;;;30.40;75.60;;;;;;7344984;32;20218;-57
2023/09/06 13:53:09;;;;;;;5.32;2.33;;;30.40;76.70;;;;;;7345660;32;20200;-57
2023/09/06 13:57:10;;;;;;;4.35;2.90;;;30.30;77.30;;;;;;7338423;32;20318;-58
2023/09/06 14:01:15;;;;;;;3.40;2.25;;;30.30;79.50;;;;;;7346672;32;20623;-58
2023/09/06 14:05:17;;;;;;;6.80;2.37;;;30.40;80.30;;;;;;7352403;32;20125;-58
2023/09/06 14:09:19;;;;;;;3.05;2.20;;;30.40;80.60;;;;;;7343769;32;20476;-58
2023/09/06 14:13:22;;;;;;;5.28;2.15;;;30.50;78.10;;;;;;7346802;32;20819;-59
2023/09/06 14:17:24;;;;;;;6.15;2.15;;;30.30;70.20;;;;;;7341191;32;20550;-58
2023/09/06 14:21:26;;;;;;;3.30;1.70;;;30.60;73.40;;;;;;7346487;32;20120;-60
2023/09/06 14:25:28;;;;;;;2.85;1.87;;;30.80;74.10;;;;;;7340826;32;20743;-58
2023/09/06 14:29:30;;;;;;;2.97;1.60;;;31.00;74.90;;;;;;7345050;32;20172;-57
2023/09/06 14:33:32;;;;;;;2.47;2.00;;;31.00;71.20;;;;;;7345891;32;20756;-58
2023/09/06 14:37:34;;;;;;;2.58;2.00;;;30.90;74.80;;;;;;7355764;32;20102;-56
2023/09/06 14:41:36;;;;;;;2.62;1.90;;;30.80;76.80;;;;;;7340001;32;20756;-58
2023/09/06 14:45:38;;;;;;;2.87;2.20;;;30.50;78.90;;;;;;7348244;32;20156;-58
2023/09/06 14:49:40;;;;;;;3.15;2.22;;;30.30;77.00;;;;;;7337224;32;20675;-57
2023/09/06 14:53:42;;;;;;;3.08;1.87;;;30.00;75.90;;;;;;7352065;32;20115;-58
2023/09/06 14:57:44;;;;;;;3.00;1.95;;;30.10;76.00;;;;;;7348145;32;20171;-57
2023/09/06 15:01:45;;;;;;;4.85;2.10;;;29.80;75.00;;;;;;7353175;32;20171;-57
2023/09/06 15:05:47;;;;;;;5.22;2.10;;;29.40;74.50;;;;;;7352156;32;20103;-56
2023/09/06 15:09:49;;;;;;;3.87;1.85;;;29.30;74.80;;;;;;7355950;32;20133;-58
2023/09/06 15:13:52;;;;;;;6.35;2.50;;;29.40;78.90;;;;;;7346322;32;20225;-57
2023/09/06 15:17:54;;;;;;;4.35;3.58;;;29.30;75.70;;;;;;7348659;32;20220;-57
2023/09/06 15:22:00;;;;;;;;;;;29.30;79.20;;;;;;7355675;32;20190;-59
2023/09/06 15:26:02;;;;;;;6.22;2.20;;;29.10;76.50;;;;;;7340578;32;20169;-57
2023/09/06 15:30:07;;;;;;;2.78;1.90;;;28.80;76.90;;;;;;7342645;32;20806;-58
2023/09/06 15:34:09;;;;;;;2.67;2.03;;;28.70;77.70;;;;;;7339595;32;20118;-57
2023/09/06 15:38:14;;;;;;;3.97;2.58;;;28.70;76.10;;;;;;7348393;32;20456;-57
2023/09/06 15:42:16;;;;;;;3.90;2.03;;;28.60;77.30;;;;;;7349848;32;20210;-57
2023/09/06 15:46:18;;;;;;;4.15;2.28;;;28.60;78.70;;;;;;7345853;32;20122;-57
2023/09/06 15:50:20;;;;;;;2.60;2.00;;;28.50;80.90;;;;;;7341132;32;20193;-56
2023/09/06 15:54:22;;;;;;;2.58;1.98;;;28.40;78.30;;;;;;7345775;32;20243;-57
2023/09/06 15:58:24;;;;;;;3.28;2.05;;;28.40;80.00;;;;;;7339703;32;20138;-55
2023/09/06 16:02:26;;;;;;;3.87;2.28;;;28.40;78.80;;;;;;7332234;32;20272;-56
2023/09/06 16:06:28;;;;;;;5.80;2.30;;;28.30;79.70;;;;;;7336845;32;20923;-56
2023/09/06 16:10:30;;;;;;;3.55;2.22;;;28.20;82.10;;;;;;7346053;32;20115;-56
2023/09/06 16:14:32;;;;;;;3.53;2.08;;;28.20;83.10;;;;;;7346360;32;20115;-57
2023/09/06 16:18:34;;;;;;;3.15;2.22;;;28.10;87.00;;;;;;7337992;32;20245;-57
2023/09/06 16:22:36;;;;;;;3.72;2.15;;;28.10;90.10;;;;;;7342144;32;20183;-56
2023/09/06 16:26:37;;;;;;;4.40;2.37;;;28.00;91.70;;;;;;7340435;32;20240;-57
2023/09/06 16:30:41;;;;;;;5.00;2.65;;;28.00;93.30;;;;;;7345373;32;20247;-57
2023/09/06 16:34:43;;;;;;;7.15;2.90;;;27.90;94.00;;;;;;7338187;32;20315;-56
2023/09/06 16:38:45;;;;;;;4.37;2.92;;;27.80;98.40;;;;;;7342823;32;20128;-57
2023/09/06 16:42:47;;;;;;;4.80;2.67;;;27.70;99.90;;;;;;7338705;32;20846;-57
2023/09/06 16:46:49;;;;;;;5.37;3.08;;;27.50;99.90;;;;;;7344719;32;20407;-57
2023/09/06 16:50:52;;;;;;;8.57;4.28;;;27.20;99.90;;;;;;7340376;32;20313;-58
2023/09/06 16:54:55;;;;;;;8.63;3.78;;;26.90;99.90;;;;;;7340517;32;20116;-56
2023/09/06 16:58:57;;;;;;;6.18;3.20;;;26.60;99.90;;;;;;7340250;32;20178;-56
2023/09/06 17:02:59;;;;;;;8.38;3.05;;;26.40;99.90;;;;;;7342169;32;20122;-56
2023/09/06 17:07:00;;;;;;;3.17;2.62;;;26.30;99.90;;;;;;7345869;32;20103;-57
2023/09/06 17:11:02;;;;;;;6.32;2.60;;;26.10;99.90;;;;;;7338565;32;20629;-57
2023/09/06 17:15:15;;;;;;;4.85;2.65;;;26.00;99.90;;;;;;7341474;32;20099;-56
2023/09/06 17:19:17;;;;;;;3.92;2.25;;;25.70;99.90;;;;;;7341208;32;20107;-57
2023/09/06 17:23:19;;;;;;;4.18;2.55;;;25.40;99.90;;;;;;7343270;32;20091;-56
2023/09/06 17:27:21;;;;;;;4.62;2.28;;;25.20;99.90;;;;;;7337955;32;20640;-56
2023/09/06 17:31:23;;;;;;;4.95;2.78;;;25.00;99.90;;;;;;7344111;32;20330;-56
2023/09/06 17:35:26;;;;;;;7.80;2.60;;;24.80;99.90;;;;;;7343536;32;20125;-57
2023/09/06 17:39:28;;;;;;;3.80;2.87;;;24.50;99.90;;;;;;7340740;32;20486;-56
2023/09/06 17:43:30;;;;;;;5.37;3.08;;;24.20;99.90;;;;;;7336529;32;20630;-56
2023/09/06 17:47:32;;;;;;;3.67;2.65;;;24.00;99.90;;;;;;7343225;32;20544;-58
2023/09/06 17:51:35;;;;;;;5.32;2.90;;;23.60;99.90;;;;;;7330774;32;20219;-56
2023/09/06 17:55:38;;;;;;;10.18;3.33;;;23.40;99.90;;;;;;7327720;32;20217;-56
2023/09/06 17:59:40;;;;;;;5.68;2.72;;;23.20;99.90;;;;;;7334935;32;20119;-58
2023/09/06 18:03:44;;;;;;;4.90;3.20;;;23.10;99.90;;;;;;7338580;32;20667;-58
2023/09/06 18:07:46;;;;;;;8.00;3.65;;;22.90;99.90;;;;;;7336369;32;20096;-57
2023/09/06 18:11:50;;;;;;;7.97;3.35;;;22.60;99.90;;;;;;7338181;32;20497;-57
2023/09/06 18:15:52;;;;;;;9.45;3.30;;;22.40;99.90;;;;;;7342267;32;20832;-57
2023/09/06 18:19:54;;;;;;;7.25;3.50;;;22.20;99.90;;;;;;7339374;32;20205;-56
2023/09/06 18:24:03;;;;;;;5.40;3.40;;;21.90;99.90;;;;;;7335629;32;20807;-57
2023/09/06 18:28:08;;;;;;;8.65;3.45;;;21.70;99.90;;;;;;7337396;32;20107;-56
2023/09/06 18:32:10;;;;;;;4.12;3.58;;;21.40;99.90;;;;;;7341348;32;20240;-56
2023/09/06 18:36:12;;;;;;;4.32;3.33;;;21.20;99.90;;;;;;7344458;32;20381;-58
2023/09/06 18:40:15;;;;;;;9.85;4.32;;;21.00;99.90;;;;;;7341849;32;20246;-56
2023/09/06 18:44:16;;;;;;;7.22;4.07;;;20.90;99.90;;;;;;7329216;32;20154;-56
2023/09/06 18:48:22;;;;;;;6.15;3.47;;;20.70;99.90;;;;;;7336303;32;20184;-57
2023/09/06 18:52:24;;;;;;;5.05;3.50;;;20.50;99.90;;;;;;7338564;32;20202;-54
2023/09/06 18:56:26;;;;;;;5.03;3.50;;;20.30;99.90;;;;;;7345340;32;20187;-55
2023/09/06 19:00:28;;;;;;;9.68;4.65;;;20.20;99.90;;;;;;7349968;32;20131;-55
2023/09/06 19:04:30;;;;;;;6.70;3.70;;;20.20;99.90;;;;;;7348039;32;20099;-54
2023/09/06 19:08:32;;;;;;;3.87;3.37;;;20.10;99.90;;;;;;7344159;32;20100;-54
2023/09/06 19:12:35;;;;;;;6.72;3.80;;;20.00;99.90;;;;;;7347536;32;20153;-55
2023/09/06 19:16:37;;;;;;;5.00;3.65;;;19.90;99.90;;;;;;7348127;32;20823;-57
2023/09/06 19:20:40;;;;;;;9.45;3.67;;;19.90;99.90;;;;;;7352062;32;20198;-56
2023/09/06 19:24:42;;;;;;;9.20;4.30;;;19.70;99.90;;;;;;7349568;32;20115;-56
2023/09/06 19:28:44;;;;;;;6.12;3.83;;;19.70;99.90;;;;;;7353698;32;20293;-55
2023/09/06 19:32:46;;;;;;;6.40;4.10;;;19.50;99.90;;;;;;7354328;32;20165;-56
2023/09/06 19:36:47;;;;;;;6.03;4.05;;;19.40;99.90;;;;;;7339788;32;20108;-58
2023/09/06 19:40:51;;;;;;;10.80;3.92;;;19.30;99.90;;;;;;7349856;32;20104;-55
2023/09/06 19:44:53;;;;;;;9.57;4.15;;;19.20;99.90;;;;;;7347449;32;20198;-57
2023/09/06 19:48:55;;;;;;;6.32;3.65;;;19.10;99.90;;;;;;7351171;32;20503;-55
2023/09/06 19:53:07;;;;;;;10.98;4.10;;;19.00;99.90;;;;;;7339583;32;20179;-57
2023/09/06 19:57:09;;;;;;;14.18;4.28;;;18.90;99.90;;;;;;7348921;32;20103;-55
2023/09/06 20:01:11;;;;;;;6.72;4.35;;;18.80;99.90;;;;;;7333658;32;20240;-56
2023/09/06 20:05:12;;;;;;;11.23;3.92;;;18.80;99.90;;;;;;7353615;32;20234;-55
2023/09/06 20:09:15;;;;;;;11.02;3.83;;;18.70;99.90;;;;;;7334339;32;20142;-56
2023/09/06 20:13:17;;;;;;;7.60;3.80;;;18.70;99.90;;;;;;7339299;32;20100;-56
2023/09/06 20:17:19;;;;;;;8.68;3.95;;;18.60;99.90;;;;;;7356713;32;20111;-55
2023/09/06 20:21:23;;;;;;;7.68;4.12;;;18.50;99.90;;;;;;7351197;32;20424;-55
2023/09/06 20:25:25;;;;;;;7.93;4.47;;;18.30;99.90;;;;;;7340971;32;20242;-57
2023/09/06 20:29:30;;;;;;;11.70;4.55;;;18.30;99.90;;;;;;7334699;32;20114;-55
2023/09/06 20:33:32;;;;;;;5.95;3.72;;;18.20;99.90;;;;;;7348710;32;20176;-57
2023/09/06 20:37:34;;;;;;;8.18;4.20;;;18.20;99.90;;;;;;7343465;32;20607;-56
2023/09/06 20:41:36;;;;;;;5.22;3.75;;;18.10;99.90;;;;;;7353898;32;20197;-55
2023/09/06 20:45:39;;;;;;;8.77;4.10;;;18.00;99.90;;;;;;7344880;32;20204;-56
2023/09/06 20:49:43;;;;;;;7.70;3.85;;;17.90;99.90;;;;;;7348805;32;20664;-56
2023/09/06 20:53:46;;;;;;;10.07;4.43;;;17.90;99.90;;;;;;7347924;32;20193;-56
2023/09/06 20:57:48;;;;;;;10.05;4.18;;;17.80;99.90;;;;;;7353038;32;20126;-57
2023/09/06 21:01:49;;;;;;;5.28;4.03;;;17.70;99.90;;;;;;7348242;32;20249;-56
2023/09/06 21:05:58;;;;;;;7.35;3.70;;;17.60;99.90;;;;;;7351017;32;20131;-56
2023/09/06 21:10:00;;;;;;;6.37;4.25;;;17.60;99.90;;;;;;7352837;32;20122;-56